Time;durP1;ratioP1;P1;durP2;ratioP2;P2;SDS_P1;SDS_P2;PMS_P1;PMS_P2;Temp;Humidity;BMP_temperature;BMP_pressure;BME280_temperature;BME280_humidity;BME280_pressure;Samples;Min_cycle;Max_cycle;Signal;HPM_P1;HPM_P2
2023/05/11 00:01:08;;;;;;;10.23;4.53;;;;;;;7.02;67.77;100573.98;1477362;87;22086;-80
2023/05/11 00:03:35;;;;;;;9.77;5.00;;;;;;;6.96;68.31;100583.65;1476049;88;22235;-80
2023/05/11 00:06:02;;;;;;;9.90;4.93;;;;;;;6.96;68.31;100583.65;1469725;87;23023;-79
2023/05/11 00:08:28;;;;;;;5.97;4.20;;;;;;;6.88;68.89;100580.33;1453148;88;22056;-80
2023/05/11 00:10:55;;;;;;;7.30;4.00;;;;;;;6.82;68.54;100581.27;1480397;87;22085;-80
2023/05/11 00:13:21;;;;;;;9.40;4.90;;;;;;;6.81;68.45;100584.38;1470866;88;22182;-79
2023/05/11 00:15:47;;;;;;;7.07;4.80;;;;;;;6.82;68.10;100585.20;1469739;88;22041;-80
2023/05/11 00:18:13;;;;;;;10.07;4.43;;;;;;;6.84;67.73;100584.13;1479989;88;22196;-79
2023/05/11 00:20:40;;;;;;;9.93;5.63;;;;;;;6.86;67.90;100584.03;1473524;87;22085;-79
2023/05/11 00:23:06;;;;;;;7.67;4.10;;;;;;;6.87;67.98;100587.01;1466198;87;22980;-80
2023/05/11 00:25:32;;;;;;;8.20;4.17;;;;;;;6.86;68.00;100584.03;1475434;87;22200;-80
2023/05/11 00:27:58;;;;;;;8.47;4.00;;;;;;;6.84;68.65;100584.62;1470214;88;22057;-79
2023/05/11 00:30:24;;;;;;;7.63;4.23;;;;;;;6.82;68.91;100583.89;1480098;88;22236;-80
2023/05/11 00:32:50;;;;;;;7.90;5.20;;;;;;;6.78;68.96;100584.62;1475474;87;22072;-79
2023/05/11 00:35:17;;;;;;;6.63;5.07;;;;;;;6.72;69.33;100581.98;1478328;87;23029;-79
2023/05/11 00:37:43;;;;;;;10.20;4.30;;;;;;;6.68;69.22;100579.24;1471790;87;22137;-81
2023/05/11 00:40:10;;;;;;;9.97;4.93;;;;;;;6.67;70.22;100582.81;1469797;87;22095;-80
2023/05/11 00:42:36;;;;;;;9.90;4.63;;;;;;;6.66;69.68;100578.52;1474078;87;22042;-80
2023/05/11 00:45:03;;;;;;;7.10;4.90;;;;;;;6.64;69.75;100576.47;1471503;88;22144;-79
2023/05/11 00:47:29;;;;;;;10.70;4.10;;;;;;;6.65;69.67;100579.48;1482733;88;22951;-79
2023/05/11 00:49:56;;;;;;;7.93;4.17;;;;;;;6.64;69.50;100577.79;1467998;88;22071;-79
2023/05/11 00:52:23;;;;;;;9.20;4.80;;;;;;;6.66;69.47;100579.83;1473620;87;22129;-79
2023/05/11 00:54:49;;;;;;;7.97;3.87;;;;;;;6.68;69.58;100581.05;1462637;88;23008;-79
2023/05/11 00:57:16;;;;;;;13.10;5.97;;;;;;;6.68;69.15;100579.24;1461980;88;22144;-80
2023/05/11 00:59:43;;;;;;;6.43;4.27;;;;;;;6.68;68.95;100581.88;1470703;87;22021;-81
2023/05/11 01:02:09;;;;;;;11.50;4.13;;;;;;;6.69;68.63;100584.85;1476381;88;22943;-79
2023/05/11 01:04:36;;;;;;;6.63;4.00;;;;;;;6.71;68.91;100586.89;1468226;87;22115;-80
2023/05/11 01:07:16;;;;;;;5.17;3.63;;;;;;;6.72;68.64;100585.92;1473759;87;22027;-80
2023/05/11 01:10:11;;;;;;;5.30;4.00;;;;;;;6.73;68.20;100586.30;1469341;87;22150;-80
2023/05/11 01:13:00;;;;;;;7.63;4.47;;;;;;;6.76;68.35;100590.02;1473267;87;21531;-81
2023/05/11 01:15:53;;;;;;;5.47;3.77;;;;;;;6.76;67.92;100588.70;1470019;87;22071;-80
2023/05/11 01:18:45;;;;;;;5.23;3.53;;;;;;;6.81;67.58;100593.58;1478713;88;21990;-80
2023/05/11 01:21:14;;;;;;;6.20;3.80;;;;;;;6.85;67.46;100588.91;1477527;87;22150;-80
2023/05/11 01:24:20;;;;;;;8.17;3.73;;;;;;;6.86;67.42;100591.44;1460183;88;23151;-80
2023/05/11 01:27:36;;;;;;;4.33;3.00;;;;;;;6.89;67.17;100590.37;1471827;87;22130;-80
2023/05/11 01:30:35;;;;;;;10.43;3.20;;;;;;;6.94;67.19;100596.11;1472561;87;22269;-81
2023/05/11 01:33:07;;;;;;;7.50;3.97;;;;;;;6.99;67.71;100590.85;1471679;88;23157;-81
2023/05/11 01:35:37;;;;;;;5.33;2.90;;;;;;;7.05;68.45;100596.11;1470056;87;22093;-79
2023/05/11 01:38:07;;;;;;;5.57;4.00;;;;;;;7.10;68.20;100597.05;1476087;87;22227;-79
2023/05/11 01:40:35;;;;;;;5.80;3.62;;;;;;;7.12;68.24;100595.97;1475460;87;22248;-79
2023/05/11 01:43:06;;;;;;;5.63;3.50;;;;;;;7.15;67.92;100601.47;1486822;87;22278;-79
2023/05/11 01:45:37;;;;;;;9.63;3.05;;;;;;;7.18;67.92;100602.55;1466692;88;22203;-79
2023/05/11 01:48:08;;;;;;;12.03;2.55;;;;;;;7.22;68.17;100592.12;1474918;88;21450;-80
2023/05/11 01:50:36;;;;;;;4.37;3.13;;;;;;;7.24;69.18;100594.99;1472338;88;21362;-80
2023/05/11 01:53:04;;;;;;;8.63;4.03;;;;;;;7.24;67.97;100597.63;1467785;88;22100;-78
2023/05/11 01:55:34;;;;;;;6.53;3.53;;;;;;;7.26;68.30;100586.98;1471175;87;23041;-81
2023/05/11 01:58:03;;;;;;;12.73;4.55;;;;;;;7.26;68.30;100586.98;1480640;87;22263;-79
2023/05/11 02:00:32;;;;;;;5.57;3.13;;;;;;;7.32;68.21;100600.14;1475324;87;21369;-79
2023/05/11 02:03:01;;;;;;;7.37;3.87;;;;;;;7.33;68.37;100597.85;1474847;88;22218;-79
2023/05/11 02:05:29;;;;;;;11.33;3.67;;;;;;;7.35;67.92;100595.94;1472817;88;22093;-79
2023/05/11 02:07:57;;;;;;;5.33;3.30;;;;;;;7.35;68.07;100588.88;1468085;87;21501;-79
2023/05/11 02:10:26;;;;;;;4.77;3.37;;;;;;;7.53;68.43;100601.04;1480370;87;21302;-79
2023/05/11 02:12:54;;;;;;;5.13;3.40;;;;;;;7.53;68.43;100601.04;1467379;87;24347;-79
2023/05/11 02:15:23;;;;;;;4.43;2.90;;;;;;;7.59;68.39;100599.22;1476460;88;21494;-79
2023/05/11 02:17:52;;;;;;;4.57;3.33;;;;;;;7.67;68.03;100609.98;1471085;87;22495;-80
2023/05/11 02:20:19;;;;;;;4.73;3.20;;;;;;;7.66;68.14;100603.05;1467534;88;21376;-76
2023/05/11 02:22:46;;;;;;;7.83;5.13;;;;;;;7.66;68.14;100603.05;1470060;88;21459;-79
2023/05/11 02:25:14;;;;;;;4.13;3.33;;;;;;;7.73;67.85;100610.45;1474793;87;21325;-79
2023/05/11 02:27:40;;;;;;;3.97;2.87;;;;;;;7.73;67.83;100608.64;1474892;87;22410;-78
2023/05/11 02:30:09;;;;;;;5.93;3.03;;;;;;;7.73;67.68;100611.77;1475950;87;21339;-78
2023/05/11 02:32:38;;;;;;;5.97;3.53;;;;;;;7.75;67.69;100617.76;1487903;88;22381;-78
2023/05/11 02:35:19;;;;;;;8.33;3.70;;;;;;;7.75;67.74;100615.12;1475824;88;21398;-79
2023/05/11 02:37:47;;;;;;;5.70;3.70;;;;;;;7.74;67.83;100616.92;1476722;88;21523;-79
2023/05/11 02:40:20;;;;;;;4.60;3.20;;;;;;;7.73;67.52;100620.98;1474169;88;22491;-79
2023/05/11 02:42:50;;;;;;;7.50;3.83;;;;;;;7.73;68.04;100620.98;1474210;87;22329;-79
2023/05/11 02:45:18;;;;;;;5.35;3.30;;;;;;;7.72;67.88;100618.01;1469346;88;21405;-79
2023/05/11 02:47:52;;;;;;;5.57;3.33;;;;;;;7.73;68.40;100615.72;1476204;88;21435;-79
2023/05/11 02:50:23;;;;;;;5.47;3.33;;;;;;;7.76;68.79;100612.83;1474800;88;22366;-78
2023/05/11 02:52:53;;;;;;;4.80;3.02;;;;;;;7.76;68.79;100612.83;1475758;87;22837;-79
2023/05/11 02:55:21;;;;;;;4.45;3.20;;;;;;;7.83;68.51;100617.48;1476016;87;21445;-79
2023/05/11 02:57:48;;;;;;;6.73;3.80;;;;;;;7.86;68.27;100616.41;1473404;88;21391;-79
2023/05/11 03:00:16;;;;;;;9.43;3.40;;;;;;;7.88;68.04;100616.64;1468188;88;22263;-79
2023/05/11 03:02:42;;;;;;;7.73;3.97;;;;;;;7.89;68.42;100621.42;1478632;87;21420;-79
2023/05/11 03:05:09;;;;;;;5.30;3.40;;;;;;;7.87;68.54;100619.39;1471570;87;21465;-79
2023/05/11 03:07:36;;;;;;;8.13;3.60;;;;;;;7.83;68.95;100616.17;1473633;87;22250;-79
2023/05/11 03:10:03;;;;;;;6.13;4.03;;;;;;;7.82;68.94;100620.23;1474666;88;22412;-80
2023/05/11 03:12:34;;;;;;;3.70;3.30;;;;;;;7.80;68.64;100622.18;1472781;87;22426;-80
2023/05/11 03:15:02;;;;;;;5.95;3.80;;;;;;;7.80;68.64;100622.18;1467982;88;21457;-79
2023/05/11 03:17:31;;;;;;;9.50;4.13;;;;;;;7.80;68.62;100627.45;1466849;88;21412;-79
2023/05/11 03:20:02;;;;;;;3.77;2.87;;;;;;;7.80;69.60;100626.13;1474990;88;22746;-79
2023/05/11 03:22:27;;;;;;;6.27;3.77;;;;;;;7.83;69.37;100627.20;1469254;87;21435;-79
2023/05/11 03:24:57;;;;;;;5.03;3.07;;;;;;;7.88;69.33;100627.63;1471120;87;21405;-79
2023/05/11 03:27:30;;;;;;;14.73;3.50;;;;;;;7.93;69.66;100625.47;1478283;87;21369;-80
2023/05/11 03:37:05;;;;;;;6.07;3.93;;;;;;;8.12;69.22;100616.41;1475210;88;21435;-79
2023/05/11 03:39:34;;;;;;;6.13;3.83;;;;;;;8.18;68.74;100622.97;1463863;88;21470;-79
2023/05/11 03:42:02;;;;;;;6.57;4.27;;;;;;;8.20;70.41;100620.19;1469716;87;21591;-80
2023/05/11 03:44:31;;;;;;;8.97;4.93;;;;;;;8.23;69.15;100618.61;1478403;88;21462;-80
2023/05/11 03:47:00;;;;;;;4.93;4.43;;;;;;;8.26;69.08;100622.34;1471109;88;21383;-81
2023/05/11 03:49:27;;;;;;;6.77;3.87;;;;;;;8.30;68.86;100627.70;1470907;88;21332;-79
2023/05/11 03:51:55;;;;;;;4.63;3.33;;;;;;;8.34;69.09;100623.37;1470300;87;21376;-79
2023/05/11 03:54:21;;;;;;;5.30;3.47;;;;;;;8.40;69.13;100624.70;1479348;88;21340;-78
2023/05/11 03:56:48;;;;;;;19.77;4.23;;;;;;;8.45;69.49;100628.25;1463559;87;21552;-78
2023/05/11 03:59:15;;;;;;;10.43;3.73;;;;;;;8.54;69.46;100638.84;1481033;88;21340;-80
2023/05/11 04:01:43;;;;;;;5.93;3.87;;;;;;;8.63;69.74;100636.41;1466961;87;21458;-82
2023/05/11 04:04:09;;;;;;;5.43;3.33;;;;;;;8.71;69.61;100637.42;1471167;88;21354;-82
2023/05/11 04:06:35;;;;;;;7.50;3.17;;;;;;;8.81;69.52;100645.42;1467605;87;21368;-81
2023/05/11 04:09:01;;;;;;;5.87;3.53;;;;;;;8.88;69.88;100639.12;1478506;87;21414;-83
2023/05/11 04:11:29;;;;;;;5.07;3.53;;;;;;;8.95;69.13;100643.75;1471036;87;22470;-82
2023/05/11 04:13:55;;;;;;;4.63;2.93;;;;;;;9.02;68.76;100643.56;1473837;88;21318;-83
2023/05/11 04:16:21;;;;;;;3.57;2.90;;;;;;;9.10;68.96;100644.72;1469787;88;22249;-82
2023/05/11 04:18:47;;;;;;;6.23;3.00;;;;;;;9.17;68.37;100641.89;1475092;87;21509;-81
2023/05/11 04:21:14;;;;;;;6.57;3.20;;;;;;;9.24;68.79;100641.72;1463559;88;21354;-83
2023/05/11 04:23:40;;;;;;;7.33;3.20;;;;;;;9.31;68.41;100641.52;1473676;87;22457;-82
2023/05/11 04:26:06;;;;;;;9.93;3.97;;;;;;;9.39;67.98;100645.66;1465221;88;21354;-82
2023/05/11 04:28:32;;;;;;;8.63;3.73;;;;;;;9.48;67.75;100644.00;1472667;87;21318;-78
2023/05/11 04:30:58;;;;;;;8.87;3.67;;;;;;;9.55;67.85;100643.83;1472486;87;22440;-80
2023/05/11 04:33:24;;;;;;;18.33;4.73;;;;;;;9.62;67.60;100638.34;1472246;87;21391;-80
2023/05/11 04:35:52;;;;;;;5.30;2.97;;;;;;;9.72;67.53;100643.63;1472544;87;21449;-80
2023/05/11 04:38:20;;;;;;;8.20;3.67;;;;;;;9.80;67.21;100650.88;1471543;87;21496;-80
2023/05/11 04:40:47;;;;;;;4.27;2.67;;;;;;;9.89;66.82;100647.41;1487003;87;21324;-80
2023/05/11 04:43:14;;;;;;;9.23;3.40;;;;;;;9.98;66.72;100649.71;1472642;87;21384;-82
2023/05/11 04:45:40;;;;;;;14.53;4.40;;;;;;;10.07;66.68;100651.06;1474059;87;21317;-80
2023/05/11 04:48:06;;;;;;;4.13;2.27;;;;;;;10.17;66.22;100652.37;1471576;87;21428;-81
2023/05/11 04:50:33;;;;;;;6.07;3.00;;;;;;;10.24;65.82;100645.56;1467031;88;21295;-81
2023/05/11 04:52:59;;;;;;;6.67;3.30;;;;;;;10.33;65.73;100643.42;1471059;88;21574;-83
2023/05/11 04:55:25;;;;;;;10.03;3.00;;;;;;;10.42;65.33;100647.03;1479295;88;21390;-80
2023/05/11 04:57:51;;;;;;;7.03;2.87;;;;;;;10.53;65.42;100651.31;1482391;87;21317;-81
2023/05/11 05:00:19;;;;;;;7.23;3.00;;;;;;;10.61;64.99;100644.33;1471901;87;21397;-81
2023/05/11 05:02:45;;;;;;;6.87;3.50;;;;;;;10.71;64.63;100648.30;1476070;87;21332;-82
2023/05/11 05:05:11;;;;;;;7.27;2.70;;;;;;;10.81;64.23;100651.73;1472025;87;21494;-81
2023/05/11 05:07:37;;;;;;;6.00;3.37;;;;;;;10.89;63.66;100650.20;1474397;87;21389;-82
2023/05/11 05:10:07;;;;;;;4.03;2.67;;;;;;;10.98;63.47;100651.48;1466913;87;21302;-83
2023/05/11 05:12:32;;;;;;;6.23;2.70;;;;;;;11.06;63.17;100656.06;1475965;87;21961;-81
2023/05/11 05:14:58;;;;;;;6.37;3.17;;;;;;;11.17;62.88;100661.68;1492566;87;21480;-81
2023/05/11 05:17:25;;;;;;;5.43;3.20;;;;;;;11.26;62.80;100656.33;1480270;87;22300;-82
2023/05/11 05:19:51;;;;;;;4.33;2.83;;;;;;;11.38;62.39;100652.16;1473284;87;21347;-85
2023/05/11 05:22:17;;;;;;;9.00;3.40;;;;;;;11.49;62.27;100655.94;1474522;87;21362;-79
2023/05/11 05:24:43;;;;;;;10.37;2.77;;;;;;;11.57;61.41;100652.06;1472154;87;21302;-80
2023/05/11 05:27:10;;;;;;;5.80;2.83;;;;;;;11.67;61.08;100651.50;1472246;87;22352;-81
2023/05/11 05:29:38;;;;;;;4.50;2.90;;;;;;;11.78;61.14;100653.11;1470939;87;21538;-82
2023/05/11 05:32:05;;;;;;;6.87;3.20;;;;;;;11.92;60.98;100653.13;1463610;88;21384;-81
2023/05/11 05:34:31;;;;;;;8.87;3.77;;;;;;;12.06;60.69;100658.41;1468218;88;21554;-88
2023/05/11 05:36:58;;;;;;;7.00;3.57;;;;;;;12.16;60.13;100657.81;1469807;87;21464;-88
2023/05/11 05:39:24;;;;;;;4.23;2.80;;;;;;;12.30;59.85;100655.95;1465179;87;22370;-90
2023/05/11 05:41:51;;;;;;;7.00;3.23;;;;;;;12.39;59.15;100650.22;1476126;87;21422;-88
2023/05/11 05:44:17;;;;;;;4.60;3.03;;;;;;;12.52;58.92;100657.30;1467661;88;21501;-88
2023/05/11 05:46:43;;;;;;;7.30;3.23;;;;;;;12.62;57.97;100660.67;1474021;88;21368;-88
2023/05/11 05:49:10;;;;;;;6.43;2.97;;;;;;;12.74;57.98;100651.13;1456362;87;21414;-88
2023/05/11 05:55:36;;;;;;;2.97;2.67;;;;;;;13.01;57.47;100649.64;1473585;88;21435;-88
2023/05/11 05:58:02;;;;;;;5.43;3.30;;;;;;;13.22;56.59;100657.71;1470098;87;21347;-86
2023/05/11 06:00:28;;;;;;;6.73;3.50;;;;;;;13.33;56.61;100660.13;1474576;88;22226;-86
2023/05/11 06:02:55;;;;;;;6.07;3.30;;;;;;;13.46;55.88;100663.14;1470309;88;21266;-86
2023/05/11 06:05:21;;;;;;;5.20;2.97;;;;;;;13.54;55.26;100664.51;1474277;87;21428;-86
2023/05/11 06:07:47;;;;;;;6.23;2.93;;;;;;;13.67;55.43;100664.06;1467932;87;21391;-87
2023/05/11 06:10:14;;;;;;;5.60;3.30;;;;;;;13.78;54.89;100662.91;1478244;87;21443;-88
2023/05/11 06:12:40;;;;;;;7.10;3.00;;;;;;;13.88;54.22;100660.95;1472727;87;21502;-87
2023/05/11 06:15:07;;;;;;;6.00;2.97;;;;;;;13.97;53.22;100659.95;1467743;88;21369;-87
2023/05/11 06:17:34;;;;;;;4.33;3.37;;;;;;;14.08;53.15;100661.98;1473306;88;21550;-87
2023/05/11 06:20:00;;;;;;;5.67;3.33;;;;;;;14.19;52.84;100663.00;1474625;87;21958;-87
2023/05/11 06:22:27;;;;;;;11.00;3.27;;;;;;;14.29;52.72;100668.97;1471967;87;22595;-86
2023/05/11 06:24:53;;;;;;;12.00;3.23;;;;;;;14.42;53.09;100662.66;1488287;87;21339;-86
2023/05/11 06:27:19;;;;;;;6.67;2.90;;;;;;;14.54;52.47;100649.05;1475477;87;21295;-87
2023/05/11 06:29:45;;;;;;;6.43;2.97;;;;;;;14.61;49.64;100656.17;1473683;87;21443;-86
2023/05/11 06:32:11;;;;;;;6.07;3.33;;;;;;;14.68;51.31;100664.34;1481976;88;21524;-87
2023/05/11 06:34:38;;;;;;;6.77;3.07;;;;;;;14.80;51.27;100653.66;1470851;87;22440;-87
2023/05/11 06:37:04;;;;;;;9.17;3.20;;;;;;;14.93;50.83;100658.45;1475028;87;21472;-87
2023/05/11 06:39:30;;;;;;;6.63;3.00;;;;;;;15.06;50.89;100657.93;1480727;87;21458;-88
2023/05/11 06:41:57;;;;;;;6.93;3.20;;;;;;;15.17;49.90;100653.56;1468179;87;22257;-91
2023/05/11 06:44:23;;;;;;;12.67;3.53;;;;;;;15.30;50.11;100658.34;1477351;87;22441;-91
2023/05/11 06:46:49;;;;;;;7.27;2.73;;;;;;;15.39;49.52;100657.80;1480790;87;21362;-88
2023/05/11 06:49:15;;;;;;;5.27;3.07;;;;;;;15.46;49.58;100660.95;1470992;87;21545;-81
2023/05/11 06:51:41;;;;;;;5.43;3.00;;;;;;;15.63;49.73;100668.88;1473507;88;21317;-80
2023/05/11 06:54:07;;;;;;;6.47;2.80;;;;;;;15.76;49.06;100669.16;1476149;87;22343;-82
2023/05/11 06:56:34;;;;;;;6.07;3.13;;;;;;;15.87;48.49;100664.75;1474959;88;21530;-81
2023/05/11 06:59:00;;;;;;;3.77;2.30;;;;;;;15.99;48.75;100658.50;1477474;87;21295;-81
2023/05/11 07:01:27;;;;;;;4.57;2.40;;;;;;;16.08;47.18;100657.94;1469953;87;22345;-81
2023/05/11 07:03:54;;;;;;;6.20;3.23;;;;;;;16.24;48.17;100653.83;1468800;87;21517;-82
2023/05/11 07:06:20;;;;;;;4.03;2.83;;;;;;;16.40;48.21;100655.03;1475265;87;21443;-82
2023/05/11 07:08:47;;;;;;;5.37;3.07;;;;;;;16.53;47.66;100656.25;1490116;87;22529;-82
2023/05/11 07:11:14;;;;;;;9.07;2.80;;;;;;;16.64;47.28;100653.15;1465370;88;21310;-80
2023/05/11 07:13:41;;;;;;;7.27;3.37;;;;;;;16.72;46.76;100652.25;1474116;88;22948;-81
2023/05/11 07:16:07;;;;;;;6.87;3.00;;;;;;;16.83;46.65;100647.80;1467978;87;21406;-80
2023/05/11 07:18:33;;;;;;;8.87;2.93;;;;;;;16.91;46.58;100645.86;1474579;87;21331;-80
2023/05/11 07:21:00;;;;;;;5.30;2.77;;;;;;;16.99;46.06;100643.62;1468907;87;21421;-80
2023/05/11 07:23:26;;;;;;;6.73;2.53;;;;;;;17.08;45.65;100641.17;1471222;88;22465;-81
2023/05/11 07:25:54;;;;;;;4.50;2.67;;;;;;;17.20;46.14;100645.55;1478104;87;21347;-81
2023/05/11 07:28:20;;;;;;;3.83;2.57;;;;;;;17.33;45.35;100644.91;1484321;87;22291;-80
2023/05/11 07:30:46;;;;;;;8.47;3.10;;;;;;;17.44;45.21;100645.77;1476635;87;21502;-80
2023/05/11 07:33:12;;;;;;;4.90;3.13;;;;;;;17.54;44.19;100643.61;1469280;88;21384;-81
2023/05/11 07:35:39;;;;;;;8.60;3.63;;;;;;;17.63;44.89;100640.82;1482656;87;21287;-81
2023/05/11 07:38:10;;;;;;;16.67;3.40;;;;;;;17.74;44.09;100641.67;1473106;87;21468;-81
2023/05/11 07:40:36;;;;;;;8.00;2.50;;;;;;;17.85;44.30;100644.41;1472709;88;21943;-81
2023/05/11 07:43:03;;;;;;;4.03;3.00;;;;;;;17.99;43.63;100641.66;1464801;88;22380;-81
2023/05/11 07:45:29;;;;;;;8.00;3.00;;;;;;;18.12;43.31;100641.47;1471510;87;22322;-81
2023/05/11 07:47:56;;;;;;;8.77;2.60;;;;;;;18.23;41.92;100643.11;1479779;87;21368;-80
2023/05/11 07:50:22;;;;;;;2.73;2.30;;;;;;;18.32;42.18;100643.81;1475524;88;22211;-81
2023/05/11 07:52:48;;;;;;;3.47;2.30;;;;;;;18.43;41.75;100643.29;1478389;87;21355;-80
2023/05/11 07:55:14;;;;;;;7.03;2.47;;;;;;;18.52;41.54;100640.47;1481085;87;21332;-80
2023/05/11 07:57:40;;;;;;;5.60;2.53;;;;;;;18.62;40.74;100628.91;1481194;87;22956;-80
2023/05/11 08:00:08;;;;;;;3.93;2.37;;;;;;;18.77;41.05;100632.34;1470155;87;21415;-81
2023/05/11 08:02:34;;;;;;;5.63;2.70;;;;;;;18.96;41.17;100635.33;1477871;88;21454;-81
2023/05/11 08:05:00;;;;;;;3.53;2.63;;;;;;;19.12;40.61;100637.70;1476847;87;21375;-81
2023/05/11 08:07:26;;;;;;;5.67;2.40;;;;;;;19.15;37.53;100638.64;1482697;87;21339;-81
2023/05/11 08:09:53;;;;;;;9.53;2.33;;;;;;;19.17;38.31;100636.59;1485274;87;21301;-82
2023/05/11 08:12:19;;;;;;;3.63;2.23;;;;;;;19.24;37.89;100644.15;1475122;87;21441;-79
2023/05/11 08:14:45;;;;;;;6.63;2.20;;;;;;;19.28;38.01;100637.37;1472121;87;21369;-80
2023/05/11 08:17:11;;;;;;;8.07;2.10;;;;;;;19.37;37.51;100638.84;1477442;88;21317;-81
2023/05/11 08:19:37;;;;;;;2.83;2.07;;;;;;;19.46;37.77;100637.34;1471582;87;22559;-80
2023/05/11 08:22:04;;;;;;;3.83;1.70;;;;;;;19.57;37.51;100636.25;1476635;87;21317;-79
2023/05/11 08:24:30;;;;;;;2.87;2.07;;;;;;;19.65;37.24;100637.96;1472907;87;21406;-80
2023/05/11 08:26:56;;;;;;;4.50;2.08;;;;;;;19.68;36.11;100632.19;1468294;88;21369;-80
2023/05/11 08:29:26;;;;;;;4.25;1.72;;;;;;;19.83;36.90;100632.02;1472642;87;21406;-81
2023/05/11 08:31:51;;;;;;;3.83;1.90;;;;;;;19.90;33.53;100637.39;1475588;87;21663;-80
2023/05/11 08:34:17;;;;;;;2.35;1.67;;;;;;;19.91;34.68;100633.66;1475692;88;21427;-80
2023/05/11 08:36:44;;;;;;;6.70;2.22;;;;;;;19.97;34.86;100620.78;1477331;87;21391;-81
2023/05/11 08:39:10;;;;;;;4.97;2.02;;;;;;;20.05;35.19;100628.62;1468558;87;21303;-81
2023/05/11 08:41:36;;;;;;;3.47;2.45;;;;;;;20.06;34.10;100619.55;1469041;87;21447;-81
2023/05/11 08:44:03;;;;;;;5.55;2.62;;;;;;;20.10;34.82;100623.47;1470449;88;21436;-81
2023/05/11 08:46:34;;;;;;;9.20;1.90;;;;;;;20.21;34.76;100622.86;1470720;87;21389;-81
2023/05/11 08:49:01;;;;;;;4.37;1.87;;;;;;;20.28;33.98;100626.39;1472179;87;21435;-81
2023/05/11 08:51:27;;;;;;;6.00;2.02;;;;;;;20.36;33.23;100621.83;1475091;87;21399;-80
2023/05/11 08:53:56;;;;;;;4.00;1.70;;;;;;;20.44;34.00;100627.00;1474504;87;21598;-81
2023/05/11 08:56:25;;;;;;;2.87;1.90;;;;;;;20.59;34.98;100621.42;1472194;87;21405;-80
2023/05/11 08:58:55;;;;;;;11.35;2.02;;;;;;;20.62;33.72;100621.01;1476998;88;22109;-81
2023/05/11 09:01:23;;;;;;;2.22;1.60;;;;;;;20.69;34.34;100618.62;1471661;87;21391;-82
2023/05/11 09:03:50;;;;;;;9.45;1.87;;;;;;;20.80;33.64;100601.52;1475780;87;21368;-81
2023/05/11 09:06:18;;;;;;;4.35;1.90;;;;;;;20.98;35.08;100615.67;1469117;87;21519;-81
2023/05/11 09:08:46;;;;;;;3.60;1.95;;;;;;;21.08;33.03;100614.70;1464566;88;21443;-81
2023/05/11 09:11:12;;;;;;;6.25;2.05;;;;;;;21.11;31.98;100612.40;1465341;88;21318;-81
2023/05/11 09:13:38;;;;;;;7.00;1.80;;;;;;;21.16;32.13;100613.13;1477783;87;22183;-81
2023/05/11 09:16:05;;;;;;;8.15;1.62;;;;;;;21.15;31.74;100609.61;1469835;88;22359;-81
2023/05/11 09:18:31;;;;;;;4.95;1.90;;;;;;;21.18;32.59;100605.14;1473997;87;21354;-81
2023/05/11 09:21:01;;;;;;;4.15;1.77;;;;;;;21.23;33.09;100607.70;1476373;87;22364;-81
2023/05/11 09:23:27;;;;;;;12.47;1.75;;;;;;;21.32;32.07;100607.77;1470965;88;22234;-81
2023/05/11 09:25:54;;;;;;;9.95;1.65;;;;;;;21.39;32.06;100611.30;1471213;87;21449;-81
2023/05/11 09:28:26;;;;;;;8.55;1.35;;;;;;;21.46;30.45;100602.66;1466711;87;21442;-81
2023/05/11 09:30:52;;;;;;;6.53;1.70;;;;;;;21.57;30.37;100608.70;1471677;87;21332;-82
2023/05/11 09:33:24;;;;;;;6.37;1.95;;;;;;;21.69;29.71;100605.33;1478676;88;21438;-81
2023/05/11 09:35:52;;;;;;;5.20;1.70;;;;;;;21.66;30.63;100605.23;1470803;87;21459;-81
2023/05/11 09:38:21;;;;;;;3.05;1.12;;;;;;;21.50;29.65;100610.63;1468405;88;22240;-81
2023/05/11 09:40:55;;;;;;;4.78;1.80;;;;;;;21.56;29.69;100599.52;1469469;88;22254;-80
2023/05/11 09:43:27;;;;;;;10.25;1.77;;;;;;;21.65;30.02;100592.83;1476163;87;22395;-80
2023/05/11 09:46:05;;;;;;;9.80;1.98;;;;;;;21.73;30.15;100594.45;1464610;88;21332;-81
2023/05/11 09:48:31;;;;;;;5.33;1.72;;;;;;;21.67;29.58;100596.66;1470767;87;21549;-82
2023/05/11 09:51:02;;;;;;;5.78;1.72;;;;;;;21.37;30.62;100595.34;1471975;87;21435;-81
2023/05/11 09:53:44;;;;;;;1.85;1.50;;;;;;;21.63;30.95;100584.12;1476832;87;21561;-80
2023/05/11 09:56:12;;;;;;;3.00;1.67;;;;;;;21.58;29.67;100578.06;1477426;87;21398;-82
2023/05/11 09:58:53;;;;;;;5.15;1.90;;;;;;;21.29;30.53;100578.58;1474482;88;21413;-82
2023/05/11 10:01:31;;;;;;;5.10;1.65;;;;;;;21.39;30.22;100576.30;1480665;87;21420;-82
2023/05/11 10:04:00;;;;;;;2.58;1.67;;;;;;;21.43;30.94;100569.43;1478131;87;21397;-81
2023/05/11 10:06:27;;;;;;;16.32;1.67;;;;;;;21.39;30.87;100562.84;1471102;87;21244;-82
2023/05/11 10:08:54;;;;;;;5.35;1.65;;;;;;;21.66;29.75;100555.94;1469283;87;21339;-82
2023/05/11 10:11:22;;;;;;;16.57;1.67;;;;;;;22.03;28.91;100559.08;1469626;87;21362;-83
2023/05/11 10:13:50;;;;;;;5.92;1.50;;;;;;;22.04;27.82;100554.02;1467080;88;21561;-82
2023/05/11 10:16:18;;;;;;;2.20;1.77;;;;;;;22.33;28.04;100555.76;1465050;88;21377;-82
2023/05/11 10:18:45;;;;;;;3.72;1.50;;;;;;;22.63;27.75;100542.90;1472909;87;21534;-81
2023/05/11 10:21:14;;;;;;;6.00;1.77;;;;;;;22.67;28.05;100542.73;1469062;88;21331;-81
2023/05/11 10:23:41;;;;;;;6.78;2.35;;;;;;;22.80;28.00;100527.77;1475907;88;21294;-81
2023/05/11 10:26:09;;;;;;;2.95;1.72;;;;;;;22.80;28.00;100527.77;1477300;88;21516;-82
2023/05/11 10:28:36;;;;;;;1.80;1.22;;;;;;;23.11;28.25;100536.77;1473543;88;21295;-82
2023/05/11 10:31:03;;;;;;;2.12;1.17;;;;;;;23.45;27.29;100530.36;1468409;88;21549;-83
2023/05/11 10:33:31;;;;;;;3.35;2.00;;;;;;;23.31;25.58;100535.97;1466918;87;21487;-81
2023/05/11 10:35:58;;;;;;;5.33;1.77;;;;;;;23.07;24.88;100534.20;1466901;88;21361;-82
2023/05/11 10:38:24;;;;;;;4.62;1.42;;;;;;;23.02;24.41;100536.75;1472643;87;21375;-82
2023/05/11 10:40:53;;;;;;;4.17;1.30;;;;;;;23.09;24.74;100532.11;1467119;88;21450;-82
2023/05/11 10:43:46;;;;;;;3.90;1.60;;;;;;;23.07;24.56;100527.45;1470828;87;21405;-81
2023/05/11 10:46:30;;;;;;;11.38;1.40;;;;;;;23.16;26.02;100523.39;1477364;87;21398;-84
2023/05/11 10:49:05;;;;;;;1.90;1.50;;;;;;;23.36;25.23;100526.66;1479347;87;21552;-83
2023/05/11 10:52:18;;;;;;;6.08;1.62;;;;;;;23.45;24.65;100520.41;1467482;87;21627;-82
2023/05/11 10:59:21;;;;;;;2.42;1.80;;;;;;;23.59;25.70;100518.30;1480537;88;21464;-82
2023/05/11 11:01:51;;;;;;;6.97;1.60;;;;;;;23.51;25.63;100516.78;1471404;88;21866;-82
2023/05/11 11:04:19;;;;;;;2.95;1.85;;;;;;;23.64;26.64;100503.58;1478376;87;21376;-82
2023/05/11 11:06:45;;;;;;;4.65;1.65;;;;;;;23.77;26.79;100502.06;1481353;88;21353;-82
2023/05/11 11:09:15;;;;;;;5.15;1.65;;;;;;;23.81;26.21;100505.94;1476296;87;22241;-82
2023/05/11 11:11:49;;;;;;;3.20;1.70;;;;;;;23.92;26.34;100507.55;1476182;88;21339;-82
2023/05/11 11:14:18;;;;;;;2.30;1.47;;;;;;;23.95;25.60;100493.56;1472673;88;21377;-83
2023/05/11 11:17:16;;;;;;;4.28;2.02;;;;;;;24.07;25.40;100495.73;1471768;87;21397;-82
2023/05/11 11:19:43;;;;;;;7.22;1.70;;;;;;;24.14;25.39;100503.21;1461788;88;21968;-82
2023/05/11 11:22:37;;;;;;;5.47;1.72;;;;;;;23.97;25.18;100499.03;1479818;87;21427;-82
2023/05/11 11:25:08;;;;;;;4.97;1.80;;;;;;;23.93;25.14;100497.02;1469410;87;21456;-83
2023/05/11 11:27:52;;;;;;;7.12;1.52;;;;;;;23.91;24.72;100493.72;1474692;87;21279;-82
2023/05/11 11:30:29;;;;;;;1.98;1.25;;;;;;;23.91;24.97;100485.11;1470669;88;23167;-83
2023/05/11 11:33:06;;;;;;;2.33;1.37;;;;;;;23.56;25.02;100485.86;1483909;88;21568;-83
2023/05/11 11:35:44;;;;;;;6.95;2.00;;;;;;;23.54;25.34;100489.30;1461701;87;22226;-82
2023/05/11 11:38:19;;;;;;;8.40;1.55;;;;;;;23.63;25.72;100481.69;1481073;87;21345;-82
2023/05/11 11:40:51;;;;;;;4.00;1.70;;;;;;;23.74;24.46;100490.38;1473068;88;21532;-82
2023/05/11 11:43:24;;;;;;;11.30;1.60;;;;;;;23.91;25.62;100480.20;1471543;88;21391;-82
2023/05/11 11:45:57;;;;;;;5.40;1.30;;;;;;;23.98;25.19;100486.33;1478805;88;21487;-83
2023/05/11 11:48:37;;;;;;;2.65;1.47;;;;;;;24.00;24.66;100479.64;1475141;88;21324;-83
2023/05/11 11:51:12;;;;;;;3.67;1.55;;;;;;;24.10;24.60;100481.74;1471980;87;21457;-82